PWSweather.com
Personal Weather Stations
Station Observations

PoschiavoCH

Lat: 46.31962499999999, Lon: 10.066551000000004

Elevation: 3517

Station Type: WH 1080

http://www.meteoposchiavo.com

Latest ConditionsUpdated 7:35:01 AM GMT+01:01 Friday, May 24, 2019
Currently Today's Max Today's Min Today's Average
Temperature 47.0°F8.3°C 49.0°F9.4°C 43.0°F6.1°C 45.9°F7.7°C
Dew Point 38.8°F3.8°C 40.0°F4.4°C 34.6°F1.4°C 37.3°F2.9°C
Winds Calm Calm Calm -Calm - - Calm Calm
Wind Gusts -- 1.2 mph1.9 kmh - -
Humidity 73% 79% 66% 72%
Pressure 26.57 in899.8 mb 26.58 in900.1 mb 26.56 in899.4 mb -
Hour Temp Dew Point Humidity Winds Wind Gusts Pressure Precip Precip Rate Daily Precip Total
07:35 AM 47.0°F8.3°C 38.8°F3.8°C 73% Calm Calm -- 26.57 in899.8 mb - 0.00 in0.0 mm 0.00 in0.0 mm
07:30 AM 45.0°F7.2°C 38.6°F3.7°C 78% Calm Calm -- 26.57 in899.8 mb - 0.00 in0.0 mm 0.00 in0.0 mm
07:25 AM 45.0°F7.2°C 38.6°F3.7°C 78% Calm Calm -- 26.57 in899.8 mb - 0.00 in0.0 mm 0.00 in0.0 mm
07:20 AM 45.0°F7.2°C 37.6°F3.1°C 75% Calm Calm -- 26.57 in899.8 mb - 0.00 in0.0 mm 0.00 in0.0 mm
07:15 AM 45.0°F7.2°C 37.9°F3.3°C 76% Calm Calm -- 26.57 in899.8 mb - 0.00 in0.0 mm 0.00 in0.0 mm
07:10 AM 45.0°F7.2°C 38.2°F3.4°C 77% Calm Calm -- 26.57 in899.8 mb - 0.00 in0.0 mm 0.00 in0.0 mm
07:00 AM 44.0°F6.7°C 37.9°F3.3°C 79% Calm Calm -- 26.57 in899.8 mb - 0.00 in0.0 mm 0.00 in0.0 mm
06:55 AM 44.0°F6.7°C 37.3°F2.9°C 77% Calm Calm -- 26.57 in899.8 mb - 0.00 in0.0 mm 0.00 in0.0 mm
06:50 AM 44.0°F6.7°C 37.9°F3.3°C 79% Calm Calm -- 26.57 in899.8 mb - 0.00 in0.0 mm 0.00 in0.0 mm
06:45 AM 44.0°F6.7°C 36.6°F2.6°C 75% Calm Calm -- 26.57 in899.8 mb - 0.00 in0.0 mm 0.00 in0.0 mm
06:40 AM 44.0°F6.7°C 36.2°F2.3°C 74% Calm Calm -- 26.57 in899.8 mb - 0.00 in0.0 mm 0.00 in0.0 mm
06:35 AM 44.0°F6.7°C 37.6°F3.1°C 78% Calm Calm -- 26.57 in899.8 mb - 0.00 in0.0 mm 0.00 in0.0 mm
06:30 AM 44.0°F6.7°C 37.3°F2.9°C 77% Calm Calm -- 26.57 in899.8 mb - 0.00 in0.0 mm 0.00 in0.0 mm
06:25 AM 44.0°F6.7°C 36.6°F2.6°C 75% Calm Calm -- 26.57 in899.8 mb - 0.00 in0.0 mm 0.00 in0.0 mm
06:20 AM 44.0°F6.7°C 35.9°F2.2°C 73% Calm Calm -- 26.57 in899.8 mb - 0.00 in0.0 mm 0.00 in0.0 mm
06:15 AM 44.0°F6.7°C 35.9°F2.2°C 73% Calm Calm -- 26.57 in899.8 mb - 0.00 in0.0 mm 0.00 in0.0 mm
06:10 AM 43.0°F6.1°C 34.9°F1.6°C 73% Calm Calm -- 26.57 in899.8 mb - 0.00 in0.0 mm 0.00 in0.0 mm
06:00 AM 43.0°F6.1°C 34.6°F1.4°C 72% Calm Calm -- 26.57 in899.8 mb - 0.00 in0.0 mm 0.00 in0.0 mm
05:55 AM 44.0°F6.7°C 35.9°F2.2°C 73% Calm Calm -- 26.57 in899.8 mb - 0.00 in0.0 mm 0.00 in0.0 mm
05:50 AM 44.0°F6.7°C 35.9°F2.2°C 73% Calm Calm -- 26.57 in899.8 mb - 0.00 in0.0 mm 0.00 in0.0 mm
05:45 AM 44.0°F6.7°C 35.2°F1.8°C 71% Calm Calm -- 26.57 in899.8 mb - 0.00 in0.0 mm 0.00 in0.0 mm
05:40 AM 44.6°F7.0°C 35.4°F1.9°C 70% Calm Calm -- 26.57 in899.8 mb - 0.00 in0.0 mm 0.00 in0.0 mm
05:35 AM 45.0°F7.2°C 35.8°F2.1°C 70% Calm Calm -- 26.57 in899.8 mb - 0.00 in0.0 mm 0.00 in0.0 mm
05:30 AM 44.0°F6.7°C 37.3°F2.9°C 77% Calm Calm -- 26.57 in899.8 mb - 0.00 in0.0 mm 0.00 in0.0 mm
05:25 AM 44.0°F6.7°C 36.2°F2.3°C 74% Calm Calm -- 26.57 in899.8 mb - 0.00 in0.0 mm 0.00 in0.0 mm
05:20 AM 44.0°F6.7°C 35.6°F2.0°C 72% Calm Calm -- 26.57 in899.8 mb - 0.00 in0.0 mm 0.00 in0.0 mm
05:15 AM 44.0°F6.7°C 35.9°F2.2°C 73% Calm Calm -- 26.57 in899.8 mb - 0.00 in0.0 mm 0.00 in0.0 mm
05:10 AM 44.0°F6.7°C 35.2°F1.8°C 71% Calm Calm -- 26.57 in899.8 mb - 0.00 in0.0 mm 0.00 in0.0 mm
05:00 AM 44.0°F6.7°C 35.9°F2.2°C 73% Calm Calm -- 26.57 in899.8 mb - 0.00 in0.0 mm 0.00 in0.0 mm
04:55 AM 45.0°F7.2°C 35.8°F2.1°C 70% Calm Calm -- 26.57 in899.8 mb - 0.00 in0.0 mm 0.00 in0.0 mm
04:50 AM 44.0°F6.7°C 35.9°F2.2°C 73% Calm Calm -- 26.57 in899.8 mb - 0.00 in0.0 mm 0.00 in0.0 mm
04:45 AM 44.0°F6.7°C 36.9°F2.7°C 76% Calm Calm -- 26.56 in899.4 mb - 0.00 in0.0 mm 0.00 in0.0 mm
04:40 AM 44.0°F6.7°C 36.6°F2.6°C 75% Calm Calm -- 26.57 in899.8 mb - 0.00 in0.0 mm 0.00 in0.0 mm
04:35 AM 44.0°F6.7°C 36.6°F2.6°C 75% Calm Calm -- 26.57 in899.8 mb - 0.00 in0.0 mm 0.00 in0.0 mm
04:30 AM 44.0°F6.7°C 36.2°F2.3°C 74% Calm Calm -- 26.57 in899.8 mb - 0.00 in0.0 mm 0.00 in0.0 mm
04:25 AM 45.0°F7.2°C 36.9°F2.7°C 73% Calm Calm -- 26.57 in899.8 mb - 0.00 in0.0 mm 0.00 in0.0 mm
04:20 AM 46.0°F7.8°C 36.0°F2.2°C 68% Calm Calm -- 26.57 in899.8 mb - 0.00 in0.0 mm 0.00 in0.0 mm
04:15 AM 45.0°F7.2°C 36.5°F2.5°C 72% Calm Calm -- 26.57 in899.8 mb - 0.00 in0.0 mm 0.00 in0.0 mm
04:10 AM 46.0°F7.8°C 37.5°F3.1°C 72% Calm Calm -- 26.57 in899.8 mb - 0.00 in0.0 mm 0.00 in0.0 mm
04:00 AM 46.0°F7.8°C 37.1°F2.8°C 71% Calm Calm -- 26.57 in899.8 mb - 0.00 in0.0 mm 0.00 in0.0 mm
03:55 AM 46.0°F7.8°C 38.2°F3.4°C 74% Calm Calm -- 26.57 in899.8 mb - 0.00 in0.0 mm 0.00 in0.0 mm
03:50 AM 46.0°F7.8°C 36.8°F2.7°C 70% Calm Calm -- 26.56 in899.4 mb - 0.00 in0.0 mm 0.00 in0.0 mm
03:45 AM 46.0°F7.8°C 35.3°F1.8°C 66% Calm Calm -- 26.57 in899.8 mb - 0.00 in0.0 mm 0.00 in0.0 mm
03:40 AM 46.0°F7.8°C 36.0°F2.2°C 68% Calm Calm -- 26.57 in899.8 mb - 0.00 in0.0 mm 0.00 in0.0 mm
03:35 AM 46.0°F7.8°C 37.8°F3.2°C 73% Calm Calm -- 26.56 in899.4 mb - 0.00 in0.0 mm 0.00 in0.0 mm
03:30 AM 46.0°F7.8°C 37.5°F3.1°C 72% Calm Calm -- 26.57 in899.8 mb - 0.00 in0.0 mm 0.00 in0.0 mm
03:25 AM 46.4°F8.0°C 37.5°F3.1°C 71% Calm Calm 1.2 mph1.9 kmh 26.57 in899.8 mb - 0.00 in0.0 mm 0.00 in0.0 mm
03:20 AM 47.0°F8.3°C 37.4°F3.0°C 69% Calm Calm 1.2 mph1.9 kmh 26.56 in899.4 mb - 0.00 in0.0 mm 0.00 in0.0 mm
03:15 AM 47.0°F8.3°C 36.6°F2.6°C 67% Calm Calm -- 26.57 in899.8 mb - 0.00 in0.0 mm 0.00 in0.0 mm
03:10 AM 47.0°F8.3°C 36.6°F2.6°C 67% Calm Calm -- 26.57 in899.8 mb - 0.00 in0.0 mm 0.00 in0.0 mm
03:00 AM 46.0°F7.8°C 36.8°F2.7°C 70% Calm Calm -- 26.57 in899.8 mb - 0.00 in0.0 mm 0.00 in0.0 mm
02:55 AM 46.0°F7.8°C 37.5°F3.1°C 72% Calm Calm 1.2 mph1.9 kmh 26.57 in899.8 mb - 0.00 in0.0 mm 0.00 in0.0 mm
02:50 AM 46.7°F8.2°C 37.4°F3.0°C 70% Calm Calm 1.2 mph1.9 kmh 26.57 in899.8 mb - 0.00 in0.0 mm 0.00 in0.0 mm
02:45 AM 47.0°F8.3°C 37.4°F3.0°C 69% Calm Calm -- 26.57 in899.8 mb - 0.00 in0.0 mm 0.00 in0.0 mm
02:40 AM 46.0°F7.8°C 37.1°F2.8°C 71% Calm Calm -- 26.57 in899.8 mb - 0.00 in0.0 mm 0.00 in0.0 mm
02:35 AM 47.0°F8.3°C 38.4°F3.6°C 72% Calm Calm -- 26.58 in900.1 mb - 0.00 in0.0 mm 0.00 in0.0 mm
02:30 AM 47.0°F8.3°C 37.0°F2.8°C 68% Calm Calm -- 26.58 in900.1 mb - 0.00 in0.0 mm 0.00 in0.0 mm
02:25 AM 46.0°F7.8°C 36.8°F2.7°C 70% Calm Calm -- 26.57 in899.8 mb - 0.00 in0.0 mm 0.00 in0.0 mm
02:20 AM 47.0°F8.3°C 38.4°F3.6°C 72% Calm Calm -- 26.57 in899.8 mb - 0.00 in0.0 mm 0.00 in0.0 mm
02:15 AM 47.0°F8.3°C 37.7°F3.2°C 70% Calm Calm -- 26.58 in900.1 mb - 0.00 in0.0 mm 0.00 in0.0 mm
02:10 AM 47.2°F8.4°C 37.9°F3.3°C 70% Calm Calm -- 26.58 in900.1 mb - 0.00 in0.0 mm 0.00 in0.0 mm
02:00 AM 47.0°F8.3°C 36.6°F2.6°C 67% Calm Calm -- 26.58 in900.1 mb - 0.00 in0.0 mm 0.00 in0.0 mm
01:55 AM 47.0°F8.3°C 38.4°F3.6°C 72% Calm Calm -- 26.58 in900.1 mb - 0.00 in0.0 mm 0.00 in0.0 mm
01:50 AM 47.0°F8.3°C 38.1°F3.4°C 71% Calm Calm -- 26.58 in900.1 mb - 0.00 in0.0 mm 0.00 in0.0 mm
01:45 AM 47.0°F8.3°C 38.4°F3.6°C 72% Calm Calm -- 26.58 in900.1 mb - 0.00 in0.0 mm 0.00 in0.0 mm
01:40 AM 47.0°F8.3°C 38.1°F3.4°C 71% Calm Calm -- 26.58 in900.1 mb - 0.00 in0.0 mm 0.00 in0.0 mm
01:35 AM 47.0°F8.3°C 38.1°F3.4°C 71% Calm Calm -- 26.58 in900.1 mb - 0.00 in0.0 mm 0.00 in0.0 mm
01:30 AM 47.0°F8.3°C 38.1°F3.4°C 71% Calm Calm -- 26.58 in900.1 mb - 0.00 in0.0 mm 0.00 in0.0 mm
01:25 AM 47.0°F8.3°C 38.4°F3.6°C 72% Calm Calm -- 26.58 in900.1 mb - 0.00 in0.0 mm 0.00 in0.0 mm
01:20 AM 47.0°F8.3°C 38.4°F3.6°C 72% Calm Calm -- 26.58 in900.1 mb - 0.00 in0.0 mm 0.00 in0.0 mm
01:15 AM 48.0°F8.9°C 39.0°F3.9°C 71% Calm Calm -- 26.58 in900.1 mb - 0.00 in0.0 mm 0.00 in0.0 mm
01:10 AM 48.0°F8.9°C 38.3°F3.5°C 69% Calm Calm -- 26.58 in900.1 mb - 0.00 in0.0 mm 0.00 in0.0 mm
01:00 AM 48.0°F8.9°C 38.3°F3.5°C 69% Calm Calm -- 26.58 in900.1 mb - 0.00 in0.0 mm 0.00 in0.0 mm
12:55 AM 48.0°F8.9°C 38.7°F3.7°C 70% Calm Calm -- 26.58 in900.1 mb - 0.00 in0.0 mm 0.00 in0.0 mm
12:50 AM 48.0°F8.9°C 39.4°F4.1°C 72% Calm Calm -- 26.58 in900.1 mb - 0.00 in0.0 mm 0.00 in0.0 mm
12:45 AM 48.0°F8.9°C 38.7°F3.7°C 70% Calm Calm -- 26.58 in900.1 mb - 0.00 in0.0 mm 0.00 in0.0 mm
12:40 AM 49.0°F9.4°C 39.3°F4.1°C 69% Calm Calm -- 26.58 in900.1 mb - 0.00 in0.0 mm 0.00 in0.0 mm
12:35 AM 49.0°F9.4°C 38.9°F3.8°C 68% Calm Calm -- 26.58 in900.1 mb - 0.00 in0.0 mm 0.00 in0.0 mm
12:30 AM 49.0°F9.4°C 38.1°F3.4°C 66% Calm Calm -- 26.58 in900.1 mb - 0.00 in0.0 mm 0.00 in0.0 mm
12:25 AM 48.0°F8.9°C 38.3°F3.5°C 69% Calm Calm -- 26.58 in900.1 mb - 0.00 in0.0 mm 0.00 in0.0 mm
12:20 AM 48.1°F8.9°C 38.7°F3.7°C 70% Calm Calm -- 26.58 in900.1 mb - 0.00 in0.0 mm 0.00 in0.0 mm
12:15 AM 49.0°F9.4°C 39.6°F4.2°C 70% Calm Calm -- 26.58 in900.1 mb - 0.00 in0.0 mm 0.00 in0.0 mm
12:10 AM 49.0°F9.4°C 38.5°F3.6°C 67% Calm Calm -- 26.58 in900.1 mb - 0.00 in0.0 mm 0.00 in0.0 mm
12:00 AM 49.0°F9.4°C 40.0°F4.4°C 71% Calm Calm -- 26.58 in900.1 mb - 0.00 in0.0 mm 0.00 in0.0 mm